Latest Coastal Weather Observations for Ballina

IDN60701

Issued at 8:55 pm EDT Friday 31 October 2014 (issued every 10 minutes, with the page automatically refreshed every 10 minutes)

About coastal observations | Map of coastal stations | Coastal observations for NSW | Marine services | Other Formats
Station Details ID: 058198 Name: BALLINA AIRPORT AWS Lat: -28.84 Lon: 153.56 Height: 1.3 m
Data from the previous 72 hours. | See also: Recent months at Ballina
Date/Time
EDT
Temp

°C
Wind Pressure Rain
since 9am
mm
Weather Cloud Vis
km
Sea
Height
m
Swell
Dir
 
Speed
knots
Gust
knots
hPa Trend Height
m
Period
s
Dir
31/08:30pm 23.0 NNE 17 24 1013.0 - 0.0 - - 10 - - - -
31/08:00pm 23.0 NNE 17 24 1012.8 - 0.0 - - 10 - - - -
31/07:36pm 23.1 NNE 17 27 1012.8 - 0.0 - - 10 - - - -
31/07:30pm 23.1 NNE 18 27 1012.7 - 0.0 - - 10 - - - -
31/07:27pm 23.1 NNE 17 27 1012.7 - 0.0 - - 10 - - - -
31/07:00pm 23.2 NNE 16 25 1012.4 - 0.0 - - 10 - - - -
31/06:30pm 23.6 N 17 27 1012.1 - 0.0 - - 10 - - - -
31/06:00pm 24.4 NNE 17 27 1011.8 - 0.0 - - 10 - - - -
31/05:30pm 25.2 NNE 17 27 1011.9 - 0.0 - - 10 - - - -
31/05:07pm 25.7 N 18 28 1011.9 - 0.0 - - 10 - - - -
31/05:00pm 25.5 NNE 18 27 1011.8 - 0.0 - - 10 - - - -
31/04:45pm 26.2 NNE 19 29 1011.9 - 0.0 - - 10 - - - -
31/04:30pm 26.3 NNE 18 26 1011.8 - 0.0 - - 10 - - - -
31/04:21pm 26.5 NNE 15 25 1011.8 - 0.0 - - 10 - - - -
31/04:00pm 26.2 NE 17 24 1011.9 - 0.0 - - 10 - - - -
31/03:30pm 26.6 NE 17 22 1012.2 - 0.0 - - 10 - - - -
31/03:00pm 27.0 NE 17 23 1012.5 - 0.0 - - 10 - - - -
31/02:30pm 27.6 NE 15 22 1013.0 - 0.0 - - 10 - - - -
31/02:00pm 27.1 NE 16 21 1013.5 - 0.0 - - 10 - - - -
31/01:30pm 27.4 NE 18 23 1013.9 - 0.0 - - 10 - - - -
31/01:00pm 27.2 NE 15 21 1014.3 - 0.0 - - 10 - - - -
31/12:30pm 27.0 NE 17 22 1014.7 - 0.0 - - 10 - - - -
31/12:00pm 27.0 NE 18 22 1015.1 - 0.0 - Mostly clear 10 - - - -
31/11:30am 27.1 N 10 17 1015.6 - 0.0 - - 10 - - - -
31/11:00am 26.8 NNE 11 15 1015.9 - 0.0 - - 10 - - - -
31/10:30am 26.5 N 11 16 1016.1 - 0.0 - - 10 - - - -
31/10:00am 26.2 NNE 11 15 1016.2 - 0.0 - - 10 - - - -
31/09:30am 25.7 N 11 17 1016.4 - 0.0 - - 10 - - - -
31/09:00am 24.5 N 10 16 1016.6 - 0.0 - Mostly clear 10 - - - -
31/08:30am 23.6 N 10 15 1016.5 - 0.0 - - 10 - - - -
31/08:00am 21.8 NNE 6 9 1016.5 - 0.0 - - 10 - - - -
31/07:30am 20.0 W 1 4 1016.5 - 0.0 - - 10 - - - -
31/07:00am 18.0 W 3 4 1016.4 - 0.0 - - 10 - - - -
31/06:51am 17.6 W 3 4 1016.3 - 0.0 - - 10 - - - -
31/06:30am 16.6 CALM 0 0 1016.0 - 0.0 - - 1 - - - -
31/06:21am 16.4 CALM 0 2 1015.9 - 0.0 - - 5 - - - -
31/06:17am 16.3 W 1 3 1015.9 - 0.0 - - 6 - - - -
31/06:00am 15.7 W 3 5 1015.7 - 0.0 - - 0.5 - - - -
31/05:30am 16.6 CALM 0 0 1015.5 - 0.0 - - 0.9 - - - -
31/05:00am 16.4 N 1 3 1015.1 - 0.0 - - 3 - - - -
31/04:30am 16.8 WNW 2 3 1014.9 - 0.0 - - 0.9 - - - -
31/04:00am 17.4 CALM 0 0 1014.9 - 0.0 - - 2 - - - -
31/03:35am 17.7 CALM 0 0 1015.0 - 0.0 - - 5 - - - -
31/03:30am 18.2 W 1 3 1015.1 - 0.0 - - 7 - - - -
31/03:00am 18.9 CALM 0 0 1015.0 - 0.0 - - 8 - - - -
31/02:30am 19.2 NNE 2 4 1015.1 - 0.0 - - 10 - - - -
31/02:00am 19.3 NNE 5 6 1015.2 - 0.0 - - 10 - - - -
31/01:30am 19.1 NE 4 6 1015.5 - 0.0 - - 10 - - - -
31/01:00am 20.4 N 5 7 1015.8 - 0.0 - - 10 - - - -
31/12:30am 20.8 N 7 11 1015.9 - 0.0 - - 10 - - - -
31/12:00am 21.0 N 8 12 1015.9 - 0.0 - - 10 - - - -
 
Date/Time
EDT
Temp

°C
Wind Pressure Rain
since 9am
mm
Weather Cloud Vis
km
Sea
Height
m
Swell
Dir
 
Speed
knots
Gust
knots
hPa Trend Height
m
Period
s
Dir
30/11:30pm 21.2 N 9 13 1015.9 - 0.0 - - 10 - - - -
30/11:00pm 21.0 NNE 8 13 1015.8 - 0.0 - - 10 - - - -
30/10:30pm 21.2 NNE 9 13 1015.7 - 0.0 - - 10 - - - -
30/10:00pm 21.3 NNE 9 13 1015.6 - 0.0 - Partly cloudy 10 - - - -
30/09:30pm 21.4 NNE 9 11 1015.6 - 0.0 - Partly cloudy 10 - - - -
30/09:00pm 21.6 N 9 15 1015.1 - 0.0 - Partly cloudy 10 - - - -
30/08:30pm 21.5 NNE 10 15 1014.8 - 0.0 - Partly cloudy 10 - - - -
30/08:00pm 21.6 NNE 10 17 1014.5 - 0.0 - Partly cloudy 10 - - - -
30/07:30pm 21.6 NNE 11 14 1014.2 - 0.0 - - 10 - - - -
30/07:00pm 21.9 NNE 11 19 1013.9 - 0.0 - - 10 - - - -
30/06:30pm 22.3 NNE 13 20 1013.7 - 0.0 - - 10 - - - -
30/06:00pm 22.9 NNE 13 17 1013.5 - 0.0 - - 10 - - - -
30/05:30pm 23.4 NE 15 22 1013.6 - 0.0 - - 10 - - - -
30/05:00pm 24.0 NNE 16 25 1013.8 - 0.0 - - 10 - - - -
30/04:30pm 24.2 NE 17 22 1013.7 - 0.0 - - 10 - - - -
30/04:00pm 24.9 NE 17 22 1014.0 - 0.0 - - 10 - - - -
30/03:30pm 24.9 NE 15 21 1014.2 - 0.0 - - 10 - - - -
30/03:00pm 25.3 NE 16 21 1014.2 - 0.0 - - 10 - - - -
30/02:30pm 26.1 NE 13 18 1014.5 - 0.0 - - 10 - - - -
30/02:00pm 24.8 ENE 15 21 1014.9 - 0.0 - - 10 - - - -
30/01:30pm 25.2 NE 14 19 1015.5 - 0.0 - - 10 - - - -
30/01:00pm 24.7 NE 14 18 1015.9 - 0.0 - - 10 - - - -
30/12:30pm 25.8 ENE 12 16 1016.3 - 0.0 - - 10 - - - -
30/12:00pm 25.6 ENE 12 16 1016.9 - 0.0 - Mostly clear 10 - - - -
30/11:30am 25.8 ENE 12 15 1017.1 - 0.0 - - 10 - - - -
30/11:00am 24.8 NE 10 14 1017.4 - 0.0 - - 10 - - - -
30/10:30am 25.1 NE 9 13 1017.7 - 0.0 - - 10 - - - -
30/10:00am 25.3 ENE 9 12 1018.1 - 0.0 - Partly cloudy 10 - - - -
30/09:30am 24.1 ENE 6 9 1018.4 - 0.0 - Partly cloudy 10 - - - -
30/09:00am 22.7 NW 2 5 1018.6 - 0.0 - - 10 - - - -
30/08:30am 21.5 WSW 3 5 1018.5 - 0.0 - - 10 - - - -
30/08:00am 19.7 W 3 5 1018.4 - 0.0 - - 10 - - - -
30/07:30am 17.8 CALM 0 0 1018.1 - 0.0 - - 10 - - - -
30/07:00am 16.6 CALM 0 0 1017.9 - 0.0 - - 10 - - - -
30/06:30am 14.3 CALM 0 0 1017.5 - 0.0 - - 10 - - - -
30/06:22am 13.8 CALM 0 0 1017.4 - 0.0 - - 10 - - - -
30/06:00am 13.6 CALM 0 0 1017.1 - 0.0 - - 2 - - - -
30/05:58am 13.6 CALM 0 0 1017.1 - 0.0 - - 4 - - - -
30/05:30am 13.3 CALM 0 0 1016.9 - 0.0 - - 10 - - - -
30/05:00am 13.9 CALM 0 0 1016.9 - 0.0 - - 10 - - - -
30/04:30am 14.4 CALM 0 0 1016.9 - 0.0 - - 10 - - - -
30/04:00am 14.1 CALM 0 0 1016.8 - 0.0 - - 10 - - - -
30/03:30am 14.8 CALM 0 0 1016.9 - 0.0 - - 10 - - - -
30/03:25am 14.9 CALM 0 0 1016.9 - 0.0 - - 10 - - - -
30/03:00am 14.8 CALM 0 0 1017.0 - 0.0 - Mostly clear 4 - - - -
30/02:45am 15.2 CALM 0 0 1017.1 - 0.0 - Partly cloudy 5 - - - -
30/02:30am 15.2 CALM 0 0 1017.1 - 0.0 - - 10 - - - -
30/02:00am 15.8 CALM 0 0 1017.3 - 0.0 - Partly cloudy 10 - - - -
30/01:30am 16.0 CALM 0 0 1017.5 - 0.0 - Partly cloudy 8 - - - -
30/01:00am 16.4 CALM 0 0 1017.8 - 0.0 - Partly cloudy 10 - - - -
30/12:30am 16.7 CALM 0 0 1018.0 - 0.0 - Partly cloudy 10 - - - -
30/12:00am 16.6 CALM 0 0 1018.2 - 0.0 - Mostly clear 10 - - - -
 
Date/Time
EDT
Temp

°C
Wind Pressure Rain
since 9am
mm
Weather Cloud Vis
km
Sea
Height
m
Swell
Dir
 
Speed
knots
Gust
knots
hPa Trend Height
m
Period
s
Dir
29/11:30pm 16.7 CALM 0 0 1018.2 - 0.0 - Partly cloudy 10 - - - -
29/11:00pm 17.3 CALM 0 0 1018.2 - 0.0 - Partly cloudy 10 - - - -
29/10:30pm 17.3 W 3 5 1018.1 - 0.0 - Partly cloudy 10 - - - -
29/10:00pm 17.3 W 5 6 1018.2 - 0.0 - - 10 - - - -
29/09:30pm 17.8 WNW 3 8 1018.1 - 0.0 - - 10 - - - -
29/09:00pm 18.3 CALM 0 0 1017.8 - 0.0 - - 10 - - - -
29/08:30pm 19.8 ESE 3 5 1017.5 - 0.0 - - 10 - - - -
29/08:00pm 20.5 E 5 7 1017.1 - 0.0 - - 10 - - - -
29/07:30pm 20.9 ESE 6 9 1016.7 - 0.0 - - 10 - - - -
29/07:00pm 21.3 ESE 8 11 1016.3 - 0.0 - - 10 - - - -
29/06:30pm 22.2 SE 10 15 1016.1 - 0.0 - - 10 - - - -
29/06:00pm 23.1 ESE 9 13 1015.8 - 0.0 - - 10 - - - -
29/05:30pm 23.8 SE 11 15 1015.5 - 0.0 - - 10 - - - -
29/05:00pm 23.9 SE 14 18 1015.2 - 0.0 - - 10 - - - -
29/04:30pm 24.2 SE 15 21 1015.0 - 0.0 - - 10 - - - -
29/04:00pm 24.5 SSE 14 20 1015.3 - 0.0 - - 10 - - - -
29/03:30pm 25.2 SSE 14 19 1015.4 - 0.0 - - 10 - - - -
29/03:00pm 24.8 SSE 15 19 1015.6 - 0.0 - - 10 - - - -
29/02:30pm 24.8 S 13 19 1015.8 - 0.0 - - 10 - - - -
29/02:00pm 25.1 S 11 17 1016.0 - 0.0 - - 10 - - - -
29/01:30pm 25.9 S 13 17 1016.0 - 0.0 - - 10 - - - -
29/01:00pm 25.2 S 14 20 1016.2 - 0.0 - - 10 - - - -
29/12:30pm 25.3 S 14 19 1016.3 - 0.0 - - 10 - - - -
29/12:00pm 24.9 S 15 20 1016.5 - 0.0 - Partly cloudy 10 - - - -
29/11:00am 25.1 S 13 17 1016.7 - 0.0 - Partly cloudy 10 - - - -
29/10:30am 24.4 S 13 18 1016.7 - 0.0 - Partly cloudy 10 - - - -
29/10:00am 24.4 S 13 17 1016.4 - 0.0 - Partly cloudy 10 - - - -
29/09:30am 24.2 S 12 16 1016.2 - 0.0 - Partly cloudy 10 - - - -
29/09:00am 22.9 S 9 13 1015.9 - 0.0 - Partly cloudy 10 - - - -
29/08:30am 22.7 SSW 9 12 1015.6 - 0.0 - Partly cloudy 10 - - - -
29/08:00am 20.5 SW 7 10 1015.4 - 0.0 - Partly cloudy 10 - - - -
29/07:30am 19.4 WSW 8 10 1015.0 - 0.0 - Cloudy 10 - - - -
29/07:00am 19.0 WSW 7 8 1014.6 - 0.0 - Partly cloudy 9 - - - -
29/06:30am 17.8 W 6 7 1014.2 - 0.0 - - 7 - - - -
29/06:00am 17.5 WSW 3 4 1013.7 - 0.0 - Mostly cloudy 8 - - - -
29/05:30am 18.1 WSW 4 6 1013.3 - 0.0 - Cloudy 8 - - - -
29/05:00am 18.4 WSW 3 5 1013.0 - 0.0 - Cloudy 7 - - - -
29/04:30am 17.7 WSW 4 4 1012.7 - 0.0 - Cloudy 6 - - - -
29/04:09am 17.4 W 4 5 1012.4 - 0.0 - Partly cloudy 8 - - - -
29/04:00am 17.3 W 1 5 1012.3 - 0.0 - Partly cloudy 8 - - - -
29/03:30am 17.2 CALM 0 0 1012.3 - 0.0 - Cloudy 8 - - - -
29/03:00am 16.5 W 3 4 1012.2 - 0.0 - Cloudy 8 - - - -
29/02:30am 15.3 W 4 5 1012.2 - 0.0 - Partly cloudy 10 - - - -
29/02:26am 15.3 W 4 5 1012.1 - 0.0 - Partly cloudy 10 - - - -
29/02:19am 15.6 WSW 2 4 1012.2 - 0.0 - Partly cloudy 10 - - - -
29/02:05am 14.6 WSW 1 5 1012.3 - 0.0 - Partly cloudy 4 - - - -
29/02:00am 14.6 CALM 0 1 1012.2 - 0.0 - Partly cloudy 8 - - - -
29/01:30am 15.7 W 1 3 1012.2 - 0.0 - - 10 - - - -
29/01:00am 16.1 W 2 3 1012.3 - 0.0 - - 10 - - - -
29/12:49am 16.8 W 3 4 1012.4 - 0.0 - Partly cloudy 10 - - - -
29/12:30am 16.6 CALM 0 3 1012.7 - 0.0 - Partly cloudy 10 - - - -
29/12:25am 16.6 CALM 0 0 1012.7 - 0.0 - Cloudy 10 - - - -
29/12:00am 16.7 CALM 0 0 1012.8 - 0.0 - - - - - - -
 
Date/Time
EDT
Temp

°C
Wind Pressure Rain
since 9am
mm
Weather Cloud Vis
km
Sea
Height
m
Swell
Dir
 
Speed
knots
Gust
knots
hPa Trend Height
m
Period
s
Dir
28/11:30pm 17.0 CALM 0 0 1012.8 - 0.0 - - - - - - -
28/11:00pm 17.3 CALM 0 0 1012.5 - 0.0 - - - - - - -
28/10:30pm 17.7 CALM 0 0 1012.4 - 0.0 - - - - - - -
28/10:00pm 18.1 CALM 0 0 1012.2 - 0.0 - - - - - - -
28/09:30pm 18.4 CALM 0 0 1012.1 - 0.0 - - - - - - -
28/09:00pm 18.1 CALM 0 0 1011.9 - 0.0 - - 10 - - - -

Other Formats:

Comma delimited format used in spreadsheet applications
http://www.bom.gov.au/fwo/IDN60701/IDN60701.94596.axf

JavaScript Object Notation format (JSON) in row-major order
http://www.bom.gov.au/fwo/IDN60701/IDN60701.94596.json